Time;durP1;ratioP1;P1;durP2;ratioP2;P2;SDS_P1;SDS_P2;PMS_P1;PMS_P2;Temp;Humidity;BMP_temperature;BMP_pressure;BME280_temperature;BME280_humidity;BME280_pressure;Samples;Min_cycle;Max_cycle;Signal;HPM_P1;HPM_P2
2022/06/15 00:00:30;;;;;;;3.15;0.98;;;13.30;99.90;;;;;;5036583;28;20120;-87
2022/06/15 00:02:55;;;;;;;1.65;0.80;;;13.20;99.90;;;;;;5036241;28;20017;-87
2022/06/15 00:05:21;;;;;;;3.78;1.02;;;13.10;99.90;;;;;;5017060;28;20021;-87
2022/06/15 00:07:47;;;;;;;5.35;1.00;;;13.10;99.90;;;;;;5016640;28;20021;-86
2022/06/15 00:10:12;;;;;;;5.50;0.93;;;13.10;99.90;;;;;;5016413;28;20036;-87
2022/06/15 00:12:38;;;;;;;2.65;0.80;;;13.00;99.90;;;;;;5016508;28;20017;-88
2022/06/15 00:15:04;;;;;;;1.85;1.05;;;13.00;99.90;;;;;;5016346;28;20029;-87
2022/06/15 00:17:30;;;;;;;2.42;0.77;;;12.90;99.90;;;;;;5015872;28;20084;-87
2022/06/15 00:19:56;;;;;;;4.38;0.95;;;12.90;99.90;;;;;;5032764;28;20478;-87
2022/06/15 00:22:22;;;;;;;7.63;1.40;;;12.80;99.90;;;;;;5032690;28;20036;-87
2022/06/15 00:24:47;;;;;;;4.88;1.00;;;12.80;99.90;;;;;;5016341;28;20481;-86
2022/06/15 00:27:13;;;;;;;4.22;1.25;;;12.80;99.90;;;;;;5016287;28;20021;-87
2022/06/15 00:29:38;;;;;;;3.38;1.02;;;12.80;99.90;;;;;;5016159;28;20409;-87
2022/06/15 00:32:07;;;;;;;8.82;2.00;;;12.80;99.90;;;;;;5016217;28;20076;-87
2022/06/15 00:34:33;;;;;;;3.38;1.20;;;12.70;99.90;;;;;;5016148;28;20034;-87
2022/06/15 00:36:59;;;;;;;6.15;1.00;;;12.80;99.90;;;;;;5016332;28;20516;-86
2022/06/15 00:39:25;;;;;;;4.03;1.00;;;12.70;99.90;;;;;;5016003;28;20485;-86
2022/06/15 00:41:50;;;;;;;4.28;1.38;;;12.70;99.90;;;;;;5016088;28;20029;-87
2022/06/15 00:44:19;;;;;;;5.57;1.48;;;12.60;99.90;;;;;;5016275;28;20033;-87
2022/06/15 00:46:48;;;;;;;6.25;1.88;;;12.60;99.90;;;;;;5032819;28;20508;-87
2022/06/15 00:49:34;;;;;;;4.05;1.10;;;12.60;99.90;;;;;;5016126;28;20080;-87
2022/06/15 00:52:11;;;;;;;3.90;1.58;;;12.60;99.90;;;;;;5005439;28;20061;-87
2022/06/15 00:54:37;;;;;;;3.78;1.17;;;12.60;99.90;;;;;;5032430;28;20026;-88
2022/06/15 00:57:04;;;;;;;6.35;1.63;;;12.60;99.90;;;;;;5015975;28;20127;-87
2022/06/15 00:59:35;;;;;;;3.55;1.20;;;12.60;99.90;;;;;;5016061;28;20025;-87
2022/06/15 01:02:01;;;;;;;5.97;1.48;;;12.50;99.90;;;;;;5015824;28;20017;-87
2022/06/15 01:04:40;;;;;;;4.15;1.45;;;12.50;99.90;;;;;;5016005;28;20496;-88
2022/06/15 01:07:25;;;;;;;4.35;1.38;;;12.40;99.90;;;;;;5015874;28;20417;-87
2022/06/15 01:10:19;;;;;;;5.80;1.63;;;12.40;99.90;;;;;;5035502;28;20068;-86
2022/06/15 01:12:58;;;;;;;7.07;1.63;;;12.40;99.90;;;;;;4993294;28;20066;-87
2022/06/15 01:15:48;;;;;;;5.03;1.88;;;12.40;99.90;;;;;;5035915;28;20041;-87
2022/06/15 01:18:26;;;;;;;3.25;1.45;;;12.40;99.90;;;;;;5019445;28;20028;-87
2022/06/15 01:21:07;;;;;;;3.05;1.30;;;12.30;99.90;;;;;;5036005;28;20026;-87
2022/06/15 01:24:03;;;;;;;4.20;1.95;;;12.30;99.90;;;;;;5035824;28;20021;-88
2022/06/15 01:26:58;;;;;;;5.05;1.17;;;12.20;99.90;;;;;;5035922;28;20292;-88
2022/06/15 01:29:42;;;;;;;5.30;1.25;;;12.10;99.90;;;;;;5019103;28;20049;-87
2022/06/15 01:32:17;;;;;;;5.25;1.35;;;12.00;99.90;;;;;;5035607;28;20021;-87
2022/06/15 01:35:17;;;;;;;4.45;1.50;;;12.00;99.90;;;;;;5018962;28;20049;-86
2022/06/15 01:37:57;;;;;;;6.25;1.48;;;11.90;99.90;;;;;;5034425;28;20037;-87
2022/06/15 01:40:33;;;;;;;4.80;1.80;;;11.90;99.90;;;;;;5017961;28;20021;-87
2022/06/15 01:43:14;;;;;;;5.75;2.20;;;11.90;99.90;;;;;;5017896;28;20018;-87
2022/06/15 01:45:42;;;;;;;5.93;2.35;;;11.90;99.90;;;;;;5018048;28;20116;-87
2022/06/15 01:48:11;;;;;;;5.40;2.20;;;11.90;99.90;;;;;;5017662;28;20025;-87
2022/06/15 01:50:47;;;;;;;6.75;2.10;;;11.90;99.90;;;;;;5017833;28;20028;-87
2022/06/15 01:53:22;;;;;;;4.45;2.38;;;11.90;99.90;;;;;;5017658;28;20128;-87
2022/06/15 01:56:12;;;;;;;4.82;1.60;;;11.80;99.90;;;;;;5017829;28;20040;-87
2022/06/15 01:58:40;;;;;;;4.70;1.77;;;11.80;99.90;;;;;;5035344;28;20033;-87
2022/06/15 02:01:27;;;;;;;4.13;1.45;;;11.70;99.90;;;;;;5024875;28;20469;-87
2022/06/15 02:03:56;;;;;;;3.42;1.40;;;11.70;99.90;;;;;;5054658;28;20495;-88
2022/06/15 02:06:39;;;;;;;3.85;1.48;;;11.70;99.90;;;;;;5037342;28;20036;-87
2022/06/15 02:09:22;;;;;;;3.95;1.58;;;11.60;99.90;;;;;;5037329;28;20025;-87
2022/06/15 02:11:48;;;;;;;3.17;1.40;;;11.60;99.90;;;;;;5037357;28;20036;-87
2022/06/15 02:14:26;;;;;;;4.45;1.90;;;11.50;99.90;;;;;;5037031;28;20021;-88
2022/06/15 02:16:57;;;;;;;5.82;1.90;;;11.50;99.90;;;;;;5037036;28;20401;-87
2022/06/15 02:19:32;;;;;;;4.03;1.85;;;11.50;99.90;;;;;;5036963;28;20507;-87
2022/06/15 02:22:06;;;;;;;4.97;1.98;;;11.50;99.90;;;;;;5055008;28;20111;-87
2022/06/15 02:24:34;;;;;;;7.50;2.58;;;11.40;99.90;;;;;;5054626;28;20029;-87
2022/06/15 02:27:02;;;;;;;8.27;2.00;;;11.40;99.90;;;;;;5037138;28;20028;-88
2022/06/15 02:29:32;;;;;;;6.25;1.58;;;11.40;99.90;;;;;;5054626;28;20060;-88
2022/06/15 02:31:58;;;;;;;3.53;1.80;;;11.40;99.90;;;;;;5054600;28;20025;-87
2022/06/15 02:34:27;;;;;;;6.82;1.90;;;11.40;99.90;;;;;;4999083;28;1078739;-87
2022/06/15 02:36:53;;;;;;;6.10;1.83;;;11.40;99.90;;;;;;5037888;28;20048;-87
2022/06/15 02:39:19;;;;;;;4.00;2.20;;;11.40;99.90;;;;;;5054974;28;20544;-87
2022/06/15 02:41:45;;;;;;;5.85;2.38;;;11.40;99.90;;;;;;5037561;28;20053;-87
2022/06/15 02:44:16;;;;;;;4.60;1.73;;;11.30;99.90;;;;;;5055258;28;20104;-88
2022/06/15 02:46:46;;;;;;;7.38;2.33;;;11.40;99.90;;;;;;5055415;28;20022;-88
2022/06/15 02:49:12;;;;;;;7.70;2.53;;;11.40;99.90;;;;;;5037517;28;20124;-87
2022/06/15 02:51:51;;;;;;;10.65;2.70;;;11.40;99.90;;;;;;5037442;28;20493;-87
2022/06/15 02:54:21;;;;;;;4.18;1.98;;;11.40;99.90;;;;;;5037573;28;20025;-87
2022/06/15 02:56:47;;;;;;;5.80;2.05;;;11.40;99.90;;;;;;5037892;28;20568;-87
2022/06/15 02:59:12;;;;;;;7.38;2.33;;;11.40;99.90;;;;;;5034350;28;20049;-88
2022/06/15 03:01:38;;;;;;;5.07;2.00;;;11.40;99.90;;;;;;5017615;28;20025;-88
2022/06/15 03:04:04;;;;;;;7.55;1.95;;;11.40;99.90;;;;;;5017561;28;20075;-88
2022/06/15 03:06:29;;;;;;;3.60;1.88;;;11.40;99.90;;;;;;5017138;28;20120;-87
2022/06/15 03:08:56;;;;;;;6.93;2.25;;;11.40;99.90;;;;;;5033937;28;20025;-87
2022/06/15 03:11:24;;;;;;;5.35;2.10;;;11.40;99.90;;;;;;5017432;28;20091;-88
2022/06/15 03:13:50;;;;;;;6.00;1.98;;;11.40;99.90;;;;;;5017479;28;20068;-87
2022/06/15 03:16:16;;;;;;;6.03;2.15;;;11.40;99.90;;;;;;5017252;28;20044;-87
2022/06/15 03:18:41;;;;;;;7.72;1.77;;;11.30;99.90;;;;;;5017168;28;20029;-87
2022/06/15 03:21:07;;;;;;;8.95;2.10;;;11.40;99.90;;;;;;5017124;28;20021;-87
2022/06/15 03:23:32;;;;;;;3.95;2.40;;;11.40;99.90;;;;;;5017353;28;20024;-87
2022/06/15 03:26:00;;;;;;;4.55;1.65;;;11.30;99.90;;;;;;5017119;28;20033;-88
2022/06/15 03:28:26;;;;;;;10.05;2.80;;;11.30;99.90;;;;;;5017143;28;20022;-87
2022/06/15 03:30:52;;;;;;;8.90;2.10;;;11.40;99.90;;;;;;5016599;28;20531;-87
2022/06/15 03:33:18;;;;;;;6.32;2.55;;;11.40;99.90;;;;;;5017093;28;20022;-86
2022/06/15 03:35:44;;;;;;;6.85;2.55;;;11.30;99.90;;;;;;5016736;28;20052;-87
2022/06/15 03:38:11;;;;;;;4.82;2.25;;;11.30;99.90;;;;;;5016972;28;20120;-87
2022/06/15 03:40:38;;;;;;;8.90;2.10;;;11.30;99.90;;;;;;5034386;28;20101;-88
2022/06/15 03:43:04;;;;;;;7.65;2.42;;;11.30;99.90;;;;;;5034743;28;20392;-88
2022/06/15 03:45:30;;;;;;;6.25;2.47;;;11.30;99.90;;;;;;5017065;28;20033;-87
2022/06/15 03:47:55;;;;;;;6.53;2.38;;;11.30;99.90;;;;;;5016778;28;20026;-87
2022/06/15 03:50:23;;;;;;;5.35;2.50;;;11.30;99.90;;;;;;5016492;28;20033;-87
2022/06/15 03:52:49;;;;;;;7.03;2.35;;;11.40;99.90;;;;;;5016711;28;20174;-87
2022/06/15 03:55:14;;;;;;;6.95;2.55;;;11.40;99.90;;;;;;5016570;28;20064;-87
2022/06/15 03:57:40;;;;;;;7.32;2.72;;;11.40;99.90;;;;;;5018329;28;20034;-87
2022/06/15 04:00:07;;;;;;;7.47;2.60;;;11.40;99.90;;;;;;5036260;28;20514;-86
2022/06/15 04:02:33;;;;;;;7.00;2.40;;;11.40;99.90;;;;;;5035735;28;20120;-86
2022/06/15 04:04:58;;;;;;;6.88;3.03;;;11.50;99.90;;;;;;5053896;28;20118;-87
2022/06/15 04:10:12;;;;;;;8.45;3.42;;;11.50;99.90;;;;;;5054270;28;20032;-87
2022/06/15 04:12:38;;;;;;;5.78;2.53;;;11.50;99.90;;;;;;5053887;28;20017;-87
2022/06/15 04:15:05;;;;;;;6.13;3.20;;;11.50;99.90;;;;;;5036075;28;20107;-88
2022/06/15 04:17:30;;;;;;;10.80;3.05;;;11.60;99.90;;;;;;5035643;28;20021;-88
2022/06/15 04:22:40;;;;;;;7.97;2.50;;;11.60;99.90;;;;;;5054041;28;20083;-87
2022/06/15 04:25:06;;;;;;;7.05;3.03;;;11.70;99.90;;;;;;5036366;28;20018;-87
2022/06/15 04:27:32;;;;;;;5.32;3.00;;;11.80;99.90;;;;;;5035911;28;20021;-87
2022/06/15 04:29:59;;;;;;;7.75;3.70;;;11.90;99.90;;;;;;5035731;28;20024;-87
2022/06/15 04:32:25;;;;;;;5.95;2.92;;;11.90;99.90;;;;;;5035887;28;20028;-88
2022/06/15 04:34:50;;;;;;;6.40;2.80;;;11.90;99.90;;;;;;5032556;28;20132;-87
2022/06/15 04:37:16;;;;;;;6.60;3.13;;;12.00;99.90;;;;;;5032467;28;20029;-87
2022/06/15 04:39:42;;;;;;;7.55;2.97;;;12.10;99.90;;;;;;5032522;28;20018;-87
2022/06/15 04:42:08;;;;;;;8.32;2.78;;;12.20;99.90;;;;;;5032501;28;20025;-86
2022/06/15 04:44:34;;;;;;;10.07;3.53;;;12.20;99.90;;;;;;5035218;28;20171;-87
2022/06/15 04:47:01;;;;;;;7.72;3.15;;;12.30;99.90;;;;;;5036761;28;20487;-86
2022/06/15 04:49:26;;;;;;;8.85;3.55;;;12.40;99.90;;;;;;5036552;28;20065;-87
2022/06/15 04:51:52;;;;;;;6.80;3.17;;;12.40;99.90;;;;;;5036357;28;20057;-87
2022/06/15 04:54:18;;;;;;;8.63;2.80;;;12.60;99.90;;;;;;5037547;28;20029;-86
2022/06/15 04:56:44;;;;;;;8.15;2.42;;;13.00;99.90;;;;;;5030835;28;20096;-88
2022/06/15 04:59:09;;;;;;;6.55;2.70;;;13.40;99.90;;;;;;5016495;28;20036;-88
2022/06/15 05:01:35;;;;;;;3.92;1.80;;;13.90;99.90;;;;;;5016482;28;20022;-86
2022/06/15 05:04:01;;;;;;;5.20;1.70;;;14.30;99.90;;;;;;5016623;28;20022;-87
2022/06/15 05:06:26;;;;;;;5.82;1.63;;;14.70;99.90;;;;;;5016786;28;20466;-88
2022/06/15 05:08:52;;;;;;;9.80;2.30;;;15.00;99.90;;;;;;5032917;28;20105;-87
2022/06/15 05:11:17;;;;;;;7.53;1.88;;;15.30;99.90;;;;;;5016368;28;20437;-87
2022/06/15 05:13:43;;;;;;;3.83;1.40;;;15.60;99.90;;;;;;5016390;28;20474;-85
2022/06/15 05:16:08;;;;;;;5.50;1.73;;;15.90;99.90;;;;;;5017208;28;20077;-87
2022/06/15 05:18:34;;;;;;;3.40;1.38;;;16.20;99.90;;;;;;5016259;28;20021;-87
2022/06/15 05:21:02;;;;;;;6.53;1.60;;;16.40;99.90;;;;;;5016419;28;20037;-87
2022/06/15 05:23:28;;;;;;;5.45;1.38;;;16.70;99.90;;;;;;5015804;28;20113;-86
2022/06/15 05:25:54;;;;;;;8.13;1.65;;;17.00;99.90;;;;;;5016282;28;20052;-86
2022/06/15 05:28:19;;;;;;;6.10;1.83;;;17.20;99.90;;;;;;5016005;28;20038;-87
2022/06/15 05:30:45;;;;;;;4.65;1.25;;;17.30;99.90;;;;;;5015856;28;20046;-86
2022/06/15 05:33:11;;;;;;;5.35;1.52;;;17.50;99.90;;;;;;5015896;28;20053;-87
2022/06/15 05:35:37;;;;;;;4.15;1.15;;;17.70;99.90;;;;;;5015724;28;20050;-87
2022/06/15 05:38:02;;;;;;;2.70;1.25;;;17.90;99.90;;;;;;5015846;28;20026;-85
2022/06/15 05:40:28;;;;;;;7.22;1.15;;;18.10;99.90;;;;;;5016952;28;20029;-87
2022/06/15 05:42:53;;;;;;;5.50;1.63;;;18.30;99.90;;;;;;5015796;28;20452;-87
2022/06/15 05:45:19;;;;;;;6.30;1.30;;;18.40;99.90;;;;;;5015582;28;20022;-85
2022/06/15 05:47:44;;;;;;;5.30;1.75;;;18.50;99.90;;;;;;5015526;28;20028;-86
2022/06/15 05:50:15;;;;;;;4.22;1.42;;;18.50;99.90;;;;;;5015694;28;20201;-87
2022/06/15 05:52:41;;;;;;;5.75;1.30;;;18.40;99.90;;;;;;5015572;28;20061;-86
2022/06/15 05:55:07;;;;;;;4.10;1.60;;;18.40;99.90;;;;;;5015328;28;20470;-87
2022/06/15 05:57:33;;;;;;;6.05;1.38;;;18.30;99.80;;;;;;5015480;28;20030;-85
2022/06/15 05:59:59;;;;;;;5.90;1.65;;;18.20;99.60;;;;;;5015331;28;20475;-87
2022/06/15 06:02:27;;;;;;;5.57;1.40;;;18.10;99.50;;;;;;5015574;28;20029;-87
2022/06/15 06:04:52;;;;;;;6.10;1.38;;;18.10;99.70;;;;;;5015237;28;20076;-86
2022/06/15 06:07:20;;;;;;;5.78;1.25;;;18.20;99.60;;;;;;5015337;28;20022;-86
2022/06/15 06:09:46;;;;;;;5.70;1.38;;;18.20;99.30;;;;;;5016753;28;20045;-86
2022/06/15 06:12:11;;;;;;;6.43;1.25;;;18.20;99.20;;;;;;5015196;28;20022;-86
2022/06/15 06:14:40;;;;;;;3.92;1.73;;;18.20;99.30;;;;;;5016199;28;20052;-87
2022/06/15 06:17:07;;;;;;;6.25;1.77;;;18.20;99.30;;;;;;5014876;28;20095;-87
2022/06/15 06:19:33;;;;;;;5.10;1.48;;;18.20;99.20;;;;;;5015045;28;20384;-86
2022/06/15 06:21:59;;;;;;;8.13;1.50;;;18.30;99.00;;;;;;5014923;28;20504;-87
2022/06/15 06:24:24;;;;;;;6.30;2.03;;;18.30;98.70;;;;;;5031348;28;20057;-87
2022/06/15 06:26:57;;;;;;;3.85;1.20;;;18.30;98.60;;;;;;5016096;28;20213;-85
2022/06/15 06:29:23;;;;;;;4.18;1.40;;;18.30;98.50;;;;;;5031399;28;20121;-86
2022/06/15 06:31:48;;;;;;;6.32;1.35;;;18.40;98.40;;;;;;5031699;28;20108;-86
2022/06/15 06:34:14;;;;;;;4.95;1.45;;;18.30;98.30;;;;;;5015173;28;20030;-85
2022/06/15 06:36:43;;;;;;;5.95;1.63;;;18.40;98.20;;;;;;5017885;28;20048;-86
2022/06/15 06:39:20;;;;;;;6.40;1.40;;;18.30;97.80;;;;;;5017800;28;20053;-85
2022/06/15 06:41:45;;;;;;;4.53;0.90;;;18.40;97.90;;;;;;5017768;28;20033;-85
2022/06/15 06:44:13;;;;;;;3.45;1.27;;;18.40;98.00;;;;;;5018003;28;20032;-85
2022/06/15 06:46:42;;;;;;;7.15;1.83;;;18.50;97.50;;;;;;5017617;28;20061;-85
2022/06/15 06:49:08;;;;;;;5.65;1.23;;;18.50;97.30;;;;;;5017827;28;20477;-86
2022/06/15 06:51:35;;;;;;;8.50;1.73;;;18.50;97.30;;;;;;5017572;28;20025;-84
2022/06/15 06:54:02;;;;;;;5.57;1.45;;;18.50;97.20;;;;;;5017562;28;20083;-86
2022/06/15 06:56:27;;;;;;;8.82;2.30;;;18.50;97.10;;;;;;5017305;28;20036;-85
2022/06/15 06:58:53;;;;;;;7.07;1.23;;;18.60;97.10;;;;;;5017513;28;20070;-85
2022/06/15 07:01:18;;;;;;;5.57;1.58;;;18.60;96.50;;;;;;5017347;28;20079;-85
2022/06/15 07:03:44;;;;;;;6.10;1.60;;;18.60;96.50;;;;;;5017445;28;20091;-85
2022/06/15 07:06:10;;;;;;;4.90;0.98;;;18.70;96.30;;;;;;5016600;28;20033;-86
2022/06/15 07:08:39;;;;;;;4.97;1.63;;;18.70;96.20;;;;;;5017383;28;20022;-86
2022/06/15 07:11:24;;;;;;;5.20;1.27;;;18.90;96.30;;;;;;5017245;28;20022;-86
2022/06/15 07:13:50;;;;;;;6.10;0.82;;;19.00;96.20;;;;;;5017729;28;20125;-87
2022/06/15 07:16:18;;;;;;;3.50;1.10;;;19.10;96.00;;;;;;5017252;28;20125;-86
2022/06/15 07:18:45;;;;;;;8.95;1.58;;;19.30;96.00;;;;;;5017214;28;20056;-85
2022/06/15 07:21:24;;;;;;;4.60;1.40;;;19.40;95.60;;;;;;5017215;28;20397;-86
2022/06/15 07:23:51;;;;;;;4.10;1.20;;;19.40;95.30;;;;;;5017155;28;20021;-86
2022/06/15 07:26:23;;;;;;;5.07;1.40;;;19.50;95.30;;;;;;5017020;28;20022;-85
2022/06/15 07:28:49;;;;;;;8.25;1.90;;;19.50;95.10;;;;;;5033375;28;20109;-86
2022/06/15 07:31:28;;;;;;;3.67;1.20;;;19.50;95.10;;;;;;5017007;28;20049;-85
2022/06/15 07:33:54;;;;;;;7.88;1.33;;;19.50;95.20;;;;;;5016833;28;20034;-86
2022/06/15 07:36:22;;;;;;;5.55;1.40;;;19.60;95.20;;;;;;5016661;28;20052;-86
2022/06/15 07:38:48;;;;;;;4.65;0.93;;;19.70;94.80;;;;;;5034210;28;20013;-85
2022/06/15 07:41:13;;;;;;;5.22;0.90;;;19.70;94.20;;;;;;5034227;28;20037;-86
2022/06/15 07:43:39;;;;;;;5.15;1.23;;;19.70;93.80;;;;;;5016774;28;20037;-84
2022/06/15 07:46:06;;;;;;;3.95;0.90;;;19.80;93.70;;;;;;5034268;28;20520;-85
2022/06/15 07:51:28;;;;;;;3.85;0.90;;;19.90;93.10;;;;;;4996517;28;20092;-85
2022/06/15 07:53:54;;;;;;;5.20;1.00;;;20.00;92.60;;;;;;5016408;28;20029;-85
2022/06/15 07:56:20;;;;;;;6.28;0.82;;;20.00;92.50;;;;;;5016476;28;20041;-84
2022/06/15 07:58:46;;;;;;;4.65;1.15;;;20.10;92.50;;;;;;5016446;28;20022;-85
2022/06/15 08:01:11;;;;;;;6.80;0.90;;;20.30;92.10;;;;;;5016068;28;20071;-85
2022/06/15 08:03:37;;;;;;;6.10;0.98;;;20.30;92.30;;;;;;5016545;28;20022;-84
2022/06/15 08:06:03;;;;;;;7.28;0.93;;;20.50;92.00;;;;;;5016193;28;20036;-84
2022/06/15 08:08:31;;;;;;;7.18;1.45;;;20.50;91.10;;;;;;5016219;28;20026;-85
2022/06/15 08:10:56;;;;;;;6.20;1.42;;;20.50;91.00;;;;;;5016322;28;20075;-85
2022/06/15 08:13:22;;;;;;;5.45;1.00;;;20.60;91.00;;;;;;5016577;28;20466;-85
2022/06/15 08:15:50;;;;;;;5.80;0.70;;;20.70;90.70;;;;;;5016228;28;20504;-85
2022/06/15 08:18:20;;;;;;;2.65;0.60;;;20.90;90.50;;;;;;5016019;28;20017;-85
2022/06/15 08:20:51;;;;;;;7.93;0.98;;;21.00;90.10;;;;;;5016100;28;20030;-85
2022/06/15 08:23:21;;;;;;;4.78;0.50;;;21.10;89.20;;;;;;5016273;28;20490;-85
2022/06/15 08:25:51;;;;;;;2.40;0.73;;;21.20;87.40;;;;;;5016077;28;20024;-85
2022/06/15 08:28:20;;;;;;;5.90;1.08;;;21.20;86.20;;;;;;5015879;28;20030;-86
2022/06/15 08:30:46;;;;;;;5.50;0.60;;;21.20;85.30;;;;;;5016030;28;20017;-85
2022/06/15 08:33:13;;;;;;;3.72;0.75;;;21.30;85.90;;;;;;5015956;28;20029;-85
2022/06/15 08:35:39;;;;;;;6.20;0.90;;;21.30;83.10;;;;;;5016057;28;20052;-85
2022/06/15 08:38:06;;;;;;;4.38;0.63;;;21.30;83.40;;;;;;5016183;28;20393;-85
2022/06/15 08:40:57;;;;;;;7.38;0.73;;;21.40;82.80;;;;;;5016026;28;20032;-85
2022/06/15 08:43:52;;;;;;;5.75;0.70;;;21.40;81.70;;;;;;5008193;28;20029;-86
2022/06/15 08:46:50;;;;;;;5.20;1.20;;;21.40;80.40;;;;;;5033762;28;20021;-85
2022/06/15 08:49:55;;;;;;;5.80;0.90;;;21.40;80.40;;;;;;5032278;28;20024;-85
2022/06/15 08:52:44;;;;;;;4.80;0.60;;;21.40;79.50;;;;;;4990441;28;20032;-85
2022/06/15 08:55:36;;;;;;;4.57;1.17;;;21.50;79.30;;;;;;5015741;28;20040;-85
2022/06/15 08:58:08;;;;;;;;;;;21.50;77.60;;;;;;5033870;28;20021;-84
2022/06/15 09:00:37;;;;;;;5.72;0.80;;;21.50;77.00;;;;;;5015840;28;19912;-85
2022/06/15 09:03:19;;;;;;;5.05;0.70;;;21.60;76.70;;;;;;5032167;28;20433;-85
2022/06/15 09:06:42;;;;;;;3.70;0.70;;;21.60;76.70;;;;;;5015887;28;20022;-85
2022/06/15 09:09:13;;;;;;;;;;;21.80;77.40;;;;;;4956695;28;20094;-85
2022/06/15 09:15:20;;;;;;;4.05;0.70;;;21.90;75.50;;;;;;5033554;28;20500;-85
2022/06/15 09:17:48;;;;;;;5.50;0.60;;;22.00;73.70;;;;;;5033131;28;20104;-86
2022/06/15 09:20:20;;;;;;;5.05;0.77;;;22.00;74.40;;;;;;5015765;28;20448;-86
2022/06/15 09:22:55;;;;;;;5.93;0.95;;;22.20;73.70;;;;;;5015609;28;20021;-85
2022/06/15 09:25:55;;;;;;;3.17;0.57;;;22.30;74.70;;;;;;5015463;28;20543;-86
2022/06/15 09:28:28;;;;;;;3.63;0.50;;;22.30;72.60;;;;;;5031806;28;20030;-85
2022/06/15 09:30:58;;;;;;;5.35;1.00;;;22.30;71.70;;;;;;5018416;28;20116;-84
2022/06/15 09:33:35;;;;;;;8.63;0.60;;;22.30;71.60;;;;;;5036274;28;20048;-85
2022/06/15 09:36:18;;;;;;;3.90;0.65;;;22.30;71.80;;;;;;5018677;28;20049;-85
2022/06/15 09:38:44;;;;;;;4.13;0.50;;;22.40;71.30;;;;;;5017046;28;20029;-85
2022/06/15 09:41:10;;;;;;;5.90;0.75;;;22.50;72.60;;;;;;5019024;28;20033;-86
2022/06/15 09:44:04;;;;;;;5.00;0.68;;;22.60;72.10;;;;;;5035194;28;20112;-87
2022/06/15 09:47:05;;;;;;;5.97;1.25;;;22.80;71.10;;;;;;5036754;28;20030;-86
2022/06/15 09:50:05;;;;;;;3.20;0.70;;;22.70;70.20;;;;;;5018497;28;20116;-85
2022/06/15 09:53:05;;;;;;;3.95;0.60;;;22.80;70.20;;;;;;5036228;28;20082;-85
2022/06/15 09:55:34;;;;;;;2.47;0.50;;;22.70;70.20;;;;;;5018699;28;20508;-85
2022/06/15 09:58:01;;;;;;;3.65;0.57;;;22.70;69.60;;;;;;5036324;28;20026;-84
2022/06/15 10:00:28;;;;;;;6.15;0.88;;;22.80;70.30;;;;;;5036137;28;20074;-85
2022/06/15 10:02:59;;;;;;;7.35;1.20;;;22.90;70.30;;;;;;5036016;28;20036;-84
2022/06/15 10:05:31;;;;;;;7.83;0.60;;;23.10;70.20;;;;;;5036356;28;20063;-85
2022/06/15 10:08:01;;;;;;;3.33;0.70;;;23.30;69.90;;;;;;5018589;28;20025;-85
2022/06/15 10:10:43;;;;;;;4.88;0.70;;;23.20;68.10;;;;;;5036074;28;20034;-85
2022/06/15 10:13:28;;;;;;;6.57;0.63;;;23.10;68.30;;;;;;5035848;28;20025;-85
2022/06/15 10:16:00;;;;;;;4.10;0.52;;;23.10;68.80;;;;;;5035939;28;20083;-85
2022/06/15 10:18:30;;;;;;;;;;;23.20;68.80;;;;;;5036127;28;20067;-85
2022/06/15 10:21:20;;;;;;;5.85;0.60;;;23.30;68.00;;;;;;5018288;28;19959;-85
2022/06/15 10:24:10;;;;;;;5.22;0.65;;;23.40;67.80;;;;;;5023076;28;20033;-84
2022/06/15 10:26:40;;;;;;;4.50;0.70;;;23.40;67.30;;;;;;5018141;28;20033;-85
2022/06/15 10:29:15;;;;;;;2.75;0.73;;;23.40;66.10;;;;;;5018212;28;20056;-85
2022/06/15 10:31:55;;;;;;;3.63;0.60;;;23.40;65.90;;;;;;5035431;28;20030;-85
2022/06/15 10:34:30;;;;;;;4.22;0.90;;;23.30;66.20;;;;;;5017657;28;20021;-85
2022/06/15 10:37:00;;;;;;;5.38;0.60;;;23.40;65.20;;;;;;5035616;28;20091;-85
2022/06/15 10:39:29;;;;;;;4.88;0.63;;;23.40;65.10;;;;;;5035542;28;20025;-84
2022/06/15 10:42:07;;;;;;;4.25;0.65;;;23.50;64.90;;;;;;5034228;28;20030;-85
2022/06/15 10:44:47;;;;;;;4.38;0.90;;;23.60;65.00;;;;;;5035301;28;20040;-85
2022/06/15 10:47:33;;;;;;;2.97;0.47;;;23.70;64.40;;;;;;5035421;28;20540;-86
2022/06/15 10:50:01;;;;;;;4.32;0.68;;;23.70;63.80;;;;;;5035107;28;20018;-85
2022/06/15 10:52:37;;;;;;;3.00;0.65;;;23.80;65.40;;;;;;5017673;28;20053;-84
2022/06/15 11:04:27;;;;;;;4.18;0.60;;;24.10;60.70;;;;;;5035082;28;20071;-84
2022/06/15 11:07:11;;;;;;;2.63;0.50;;;24.10;61.00;;;;;;5034726;28;20048;-84
2022/06/15 11:10:03;;;;;;;2.22;0.65;;;24.20;62.20;;;;;;5034870;28;20022;-84
2022/06/15 11:12:29;;;;;;;4.15;0.60;;;24.20;61.00;;;;;;5034888;28;20021;-84
2022/06/15 11:14:56;;;;;;;2.97;0.50;;;24.20;60.80;;;;;;5033681;28;20504;-85
2022/06/15 11:20:47;;;;;;;3.95;0.80;;;24.40;60.50;;;;;;5035095;28;20511;-84
2022/06/15 11:23:41;;;;;;;3.78;0.70;;;24.30;59.40;;;;;;5033409;28;20029;-84
2022/06/15 11:26:52;;;;;;;5.95;0.60;;;24.20;59.90;;;;;;5034362;28;20025;-84
2022/06/15 11:29:36;;;;;;;3.55;0.95;;;24.30;59.50;;;;;;5033380;28;20037;-84
2022/06/15 11:32:30;;;;;;;5.28;0.70;;;24.40;59.70;;;;;;5033241;28;20473;-84
2022/06/15 11:34:59;;;;;;;2.38;0.40;;;24.40;58.50;;;;;;5034525;28;20053;-85
2022/06/15 11:37:31;;;;;;;3.03;0.60;;;24.40;60.30;;;;;;5033037;28;20061;-85
2022/06/15 11:40:24;;;;;;;2.47;0.60;;;24.40;59.50;;;;;;5034110;28;20080;-85
2022/06/15 11:42:53;;;;;;;3.63;0.45;;;24.50;59.40;;;;;;5016248;28;20060;-85
2022/06/15 11:45:22;;;;;;;3.65;0.45;;;24.60;59.20;;;;;;5016611;28;20028;-84
2022/06/15 11:48:19;;;;;;;3.25;0.57;;;24.70;59.00;;;;;;5033948;28;20026;-84
2022/06/15 11:51:15;;;;;;;4.53;1.00;;;24.80;58.60;;;;;;5034016;28;20401;-85
2022/06/15 11:54:02;;;;;;;6.30;0.70;;;24.70;58.70;;;;;;5016068;28;20033;-85
2022/06/15 11:56:35;;;;;;;4.45;1.25;;;24.60;57.80;;;;;;5016536;28;20033;-85
2022/06/15 11:59:10;;;;;;;2.58;0.55;;;24.60;57.20;;;;;;5032938;28;20029;-84
2022/06/15 12:02:09;;;;;;;3.40;0.60;;;24.70;57.10;;;;;;5033799;28;20026;-84
2022/06/15 12:05:01;;;;;;;3.05;0.60;;;24.70;56.40;;;;;;5016350;28;20025;-85
2022/06/15 12:07:37;;;;;;;;;;;24.80;55.30;;;;;;5016749;28;20437;-84
2022/06/15 12:10:19;;;;;;;2.42;0.57;;;24.90;56.10;;;;;;5033555;28;19905;-84
2022/06/15 12:12:53;;;;;;;6.70;0.60;;;25.00;56.00;;;;;;5016154;28;20121;-84
2022/06/15 12:16:04;;;;;;;5.45;0.65;;;25.10;55.50;;;;;;5033674;28;20072;-84
2022/06/15 12:19:03;;;;;;;3.45;0.60;;;25.10;55.80;;;;;;5003141;28;20057;-84
2022/06/15 12:21:53;;;;;;;3.85;0.60;;;25.20;55.80;;;;;;5032589;28;20102;-85
2022/06/15 12:24:32;;;;;;;3.40;0.50;;;25.20;55.60;;;;;;5033644;28;20032;-84
2022/06/15 12:27:47;;;;;;;2.22;0.40;;;25.20;54.60;;;;;;5033649;28;20029;-84
2022/06/15 12:30:35;;;;;;;2.30;0.40;;;25.20;54.70;;;;;;4956627;28;20130;-85
2022/06/15 12:33:31;;;;;;;3.20;0.73;;;25.30;54.60;;;;;;4956855;28;20131;-85
2022/06/15 12:36:44;;;;;;;2.95;0.50;;;25.40;53.50;;;;;;5009830;28;20041;-85
2022/06/15 12:39:28;;;;;;;2.53;0.50;;;25.40;53.60;;;;;;4956597;28;20483;-85
2022/06/15 12:42:13;;;;;;;3.80;0.60;;;25.40;53.80;;;;;;5027966;28;20037;-85
2022/06/15 12:44:53;;;;;;;2.60;0.50;;;25.50;53.30;;;;;;5015881;28;20021;-84
2022/06/15 12:47:21;;;;;;;2.30;0.40;;;25.40;53.50;;;;;;5015731;28;20029;-85
2022/06/15 12:50:31;;;;;;;2.63;0.60;;;25.40;54.50;;;;;;5015542;28;20167;-84
2022/06/15 12:53:20;;;;;;;3.17;0.50;;;25.50;54.60;;;;;;5015761;28;20021;-85
2022/06/15 12:56:02;;;;;;;2.63;0.50;;;25.80;55.30;;;;;;5032200;28;20033;-85
2022/06/15 12:59:14;;;;;;;2.00;0.40;;;26.00;54.90;;;;;;5032189;28;20080;-85
2022/06/15 13:01:50;;;;;;;;;;;26.10;55.10;;;;;;5015981;28;20029;-84
2022/06/15 13:04:31;;;;;;;4.13;0.50;;;26.20;55.30;;;;;;5015988;28;19996;-84
2022/06/15 13:07:18;;;;;;;2.38;0.38;;;26.40;54.80;;;;;;5019500;28;20525;-84
2022/06/15 13:10:09;;;;;;;2.97;0.60;;;26.50;54.50;;;;;;5036147;28;20052;-85
2022/06/15 13:12:42;;;;;;;6.50;0.70;;;26.60;54.00;;;;;;5035893;28;20044;-86
2022/06/15 13:15:29;;;;;;;2.58;0.65;;;26.60;53.70;;;;;;5036962;28;20025;-84
2022/06/15 13:18:08;;;;;;;3.72;0.43;;;26.60;53.60;;;;;;5037242;28;20083;-84
2022/06/15 13:20:46;;;;;;;1.67;0.40;;;26.70;52.40;;;;;;5036999;28;20021;-84
2022/06/15 13:23:26;;;;;;;4.53;0.50;;;26.60;52.60;;;;;;5035621;28;20120;-85
2022/06/15 13:25:54;;;;;;;4.63;0.40;;;26.60;53.40;;;;;;5019254;28;20049;-85
2022/06/15 13:28:24;;;;;;;2.47;0.50;;;26.70;53.30;;;;;;5036785;28;20052;-85
2022/06/15 13:30:58;;;;;;;2.72;0.50;;;26.80;51.50;;;;;;5036849;28;20026;-85
2022/06/15 13:33:48;;;;;;;2.78;0.40;;;26.70;51.80;;;;;;5019029;28;20030;-84
2022/06/15 13:36:14;;;;;;;3.42;0.60;;;26.70;51.60;;;;;;5036508;28;20052;-84
2022/06/15 13:38:44;;;;;;;2.33;0.50;;;26.70;52.00;;;;;;5036465;28;20032;-84
2022/06/15 13:41:24;;;;;;;1.95;0.52;;;26.70;51.70;;;;;;5019163;28;20034;-85
2022/06/15 13:43:49;;;;;;;2.83;0.35;;;26.70;51.30;;;;;;5018687;28;20026;-85